sensor_id;sensor_type;location;lat;lon;timestamp;temperature;humidity
65203;HTU21D;51788;45.124;38.966;2023-02-01T00:01:45;4.34;88.14
65203;HTU21D;51788;45.124;38.966;2023-02-01T00:04:11;4.31;88.30
65203;HTU21D;51788;45.124;38.966;2023-02-01T00:06:37;4.30;88.28
65203;HTU21D;51788;45.124;38.966;2023-02-01T00:09:03;4.31;88.37
65203;HTU21D;51788;45.124;38.966;2023-02-01T00:11:29;4.43;88.25
65203;HTU21D;51788;45.124;38.966;2023-02-01T00:13:55;4.46;88.09
65203;HTU21D;51788;45.124;38.966;2023-02-01T00:16:25;4.52;88.07
65203;HTU21D;51788;45.124;38.966;2023-02-01T00:18:55;4.63;87.91
65203;HTU21D;51788;45.124;38.966;2023-02-01T00:21:21;4.73;87.80
65203;HTU21D;51788;45.124;38.966;2023-02-01T00:23:47;4.73;87.68
65203;HTU21D;51788;45.124;38.966;2023-02-01T00:26:16;4.64;87.85
65203;HTU21D;51788;45.124;38.966;2023-02-01T00:28:43;4.62;87.97
65203;HTU21D;51788;45.124;38.966;2023-02-01T00:31:09;4.64;88.04
65203;HTU21D;51788;45.124;38.966;2023-02-01T00:33:35;4.66;87.99
65203;HTU21D;51788;45.124;38.966;2023-02-01T00:36:03;4.67;88.10
65203;HTU21D;51788;45.124;38.966;2023-02-01T00:38:30;4.63;87.90
65203;HTU21D;51788;45.124;38.966;2023-02-01T00:41:19;4.58;88.37
65203;HTU21D;51788;45.124;38.966;2023-02-01T00:43:45;4.58;88.12
65203;HTU21D;51788;45.124;38.966;2023-02-01T00:46:13;4.41;88.58
65203;HTU21D;51788;45.124;38.966;2023-02-01T00:48:39;4.47;88.59
65203;HTU21D;51788;45.124;38.966;2023-02-01T00:51:08;4.48;88.39
65203;HTU21D;51788;45.124;38.966;2023-02-01T00:53:34;4.45;88.23
65203;HTU21D;51788;45.124;38.966;2023-02-01T00:56:01;4.31;88.48
65203;HTU21D;51788;45.124;38.966;2023-02-01T00:58:27;4.28;88.73
65203;HTU21D;51788;45.124;38.966;2023-02-01T01:01:01;4.34;88.70
65203;HTU21D;51788;45.124;38.966;2023-02-01T01:03:29;4.45;88.65
65203;HTU21D;51788;45.124;38.966;2023-02-01T01:06:00;4.50;88.61
65203;HTU21D;51788;45.124;38.966;2023-02-01T01:08:26;4.50;88.57
65203;HTU21D;51788;45.124;38.966;2023-02-01T01:10:53;4.50;88.59
65203;HTU21D;51788;45.124;38.966;2023-02-01T01:13:19;4.44;88.67
65203;HTU21D;51788;45.124;38.966;2023-02-01T01:15:45;4.46;88.88
65203;HTU21D;51788;45.124;38.966;2023-02-01T01:18:11;4.43;88.83
65203;HTU21D;51788;45.124;38.966;2023-02-01T01:20:40;4.44;88.83
65203;HTU21D;51788;45.124;38.966;2023-02-01T01:23:07;4.47;88.82
65203;HTU21D;51788;45.124;38.966;2023-02-01T01:25:37;4.50;88.79
65203;HTU21D;51788;45.124;38.966;2023-02-01T01:28:03;4.51;88.94
65203;HTU21D;51788;45.124;38.966;2023-02-01T01:30:29;4.52;89.02
65203;HTU21D;51788;45.124;38.966;2023-02-01T01:32:55;4.50;89.06
65203;HTU21D;51788;45.124;38.966;2023-02-01T01:35:21;4.49;89.02
65203;HTU21D;51788;45.124;38.966;2023-02-01T01:37:47;4.48;89.00
65203;HTU21D;51788;45.124;38.966;2023-02-01T01:40:13;4.46;88.99
65203;HTU21D;51788;45.124;38.966;2023-02-01T01:42:41;4.27;88.92
65203;HTU21D;51788;45.124;38.966;2023-02-01T01:47:57;3.84;89.59
65203;HTU21D;51788;45.124;38.966;2023-02-01T01:50:40;3.58;89.94
65203;HTU21D;51788;45.124;38.966;2023-02-01T01:53:08;3.47;90.05
65203;HTU21D;51788;45.124;38.966;2023-02-01T01:55:38;3.44;90.15
65203;HTU21D;51788;45.124;38.966;2023-02-01T01:58:10;3.42;89.98
65203;HTU21D;51788;45.124;38.966;2023-02-01T02:00:37;3.40;89.87
65203;HTU21D;51788;45.124;38.966;2023-02-01T02:03:19;3.38;89.83
65203;HTU21D;51788;45.124;38.966;2023-02-01T02:05:48;3.17;89.88
65203;HTU21D;51788;45.124;38.966;2023-02-01T02:08:15;3.11;90.18
65203;HTU21D;51788;45.124;38.966;2023-02-01T02:10:42;3.14;90.05
65203;HTU21D;51788;45.124;38.966;2023-02-01T02:13:36;3.18;89.77
65203;HTU21D;51788;45.124;38.966;2023-02-01T02:16:17;3.21;89.68
65203;HTU21D;51788;45.124;38.966;2023-02-01T02:19:32;3.08;89.60
65203;HTU21D;51788;45.124;38.966;2023-02-01T02:22:19;3.13;89.96
65203;HTU21D;51788;45.124;38.966;2023-02-01T02:36:25;3.18;89.89
65203;HTU21D;51788;45.124;38.966;2023-02-01T02:39:03;3.20;89.66
65203;HTU21D;51788;45.124;38.966;2023-02-01T02:44:28;2.87;89.99
65203;HTU21D;51788;45.124;38.966;2023-02-01T02:53:04;2.64;90.16
65203;HTU21D;51788;45.124;38.966;2023-02-01T02:55:52;2.71;90.36
65203;HTU21D;51788;45.124;38.966;2023-02-01T02:58:37;2.84;89.95
65203;HTU21D;51788;45.124;38.966;2023-02-01T03:01:22;2.71;89.89
65203;HTU21D;51788;45.124;38.966;2023-02-01T03:04:06;2.71;89.94
65203;HTU21D;51788;45.124;38.966;2023-02-01T03:06:39;2.73;89.94
65203;HTU21D;51788;45.124;38.966;2023-02-01T03:09:50;2.83;89.88
65203;HTU21D;51788;45.124;38.966;2023-02-01T03:12:02;2.86;89.50
65203;HTU21D;51788;45.124;38.966;2023-02-01T03:14:56;2.69;89.63
65203;HTU21D;51788;45.124;38.966;2023-02-01T03:17:30;2.56;89.98
65203;HTU21D;51788;45.124;38.966;2023-02-01T03:20:01;2.56;90.21
65203;HTU21D;51788;45.124;38.966;2023-02-01T03:22:28;2.65;90.05
65203;HTU21D;51788;45.124;38.966;2023-02-01T03:25:18;2.76;89.78
65203;HTU21D;51788;45.124;38.966;2023-02-01T03:27:50;2.84;89.66
65203;HTU21D;51788;45.124;38.966;2023-02-01T03:30:23;3.00;89.41
65203;HTU21D;51788;45.124;38.966;2023-02-01T03:32:55;2.96;89.08
65203;HTU21D;51788;45.124;38.966;2023-02-01T03:38:06;2.74;89.76
65203;HTU21D;51788;45.124;38.966;2023-02-01T03:40:37;2.79;89.93
65203;HTU21D;51788;45.124;38.966;2023-02-01T03:43:07;2.83;89.68
65203;HTU21D;51788;45.124;38.966;2023-02-01T03:45:43;2.79;89.74
65203;HTU21D;51788;45.124;38.966;2023-02-01T03:48:10;2.76;89.66
65203;HTU21D;51788;45.124;38.966;2023-02-01T03:50:43;2.66;89.80
65203;HTU21D;51788;45.124;38.966;2023-02-01T03:53:16;2.66;89.89
65203;HTU21D;51788;45.124;38.966;2023-02-01T03:55:45;2.65;89.89
65203;HTU21D;51788;45.124;38.966;2023-02-01T03:58:14;2.60;90.06
65203;HTU21D;51788;45.124;38.966;2023-02-01T04:00:44;2.65;89.92
65203;HTU21D;51788;45.124;38.966;2023-02-01T04:03:10;2.72;89.99
65203;HTU21D;51788;45.124;38.966;2023-02-01T04:05:36;2.90;89.67
65203;HTU21D;51788;45.124;38.966;2023-02-01T04:08:06;3.00;89.37
65203;HTU21D;51788;45.124;38.966;2023-02-01T04:10:32;3.08;89.27
65203;HTU21D;51788;45.124;38.966;2023-02-01T04:12:58;3.14;89.28
65203;HTU21D;51788;45.124;38.966;2023-02-01T04:15:24;3.20;89.25
65203;HTU21D;51788;45.124;38.966;2023-02-01T04:17:50;3.23;89.15
65203;HTU21D;51788;45.124;38.966;2023-02-01T04:20:16;3.20;89.20
65203;HTU21D;51788;45.124;38.966;2023-02-01T04:22:42;3.20;89.23
65203;HTU21D;51788;45.124;38.966;2023-02-01T04:25:08;3.20;89.39
65203;HTU21D;51788;45.124;38.966;2023-02-01T04:27:35;3.21;89.41
65203;HTU21D;51788;45.124;38.966;2023-02-01T04:30:01;3.23;89.33
65203;HTU21D;51788;45.124;38.966;2023-02-01T04:32:27;3.24;89.29
65203;HTU21D;51788;45.124;38.966;2023-02-01T04:34:54;3.23;89.29
65203;HTU21D;51788;45.124;38.966;2023-02-01T04:37:19;3.26;89.23
65203;HTU21D;51788;45.124;38.966;2023-02-01T04:39:45;3.30;89.15
65203;HTU21D;51788;45.124;38.966;2023-02-01T04:42:11;3.29;89.08
65203;HTU21D;51788;45.124;38.966;2023-02-01T04:44:38;3.32;89.21
65203;HTU21D;51788;45.124;38.966;2023-02-01T04:47:07;3.38;89.25
65203;HTU21D;51788;45.124;38.966;2023-02-01T04:49:33;3.44;89.16
65203;HTU21D;51788;45.124;38.966;2023-02-01T04:51:59;3.47;89.11
65203;HTU21D;51788;45.124;38.966;2023-02-01T04:54:25;3.48;89.21
65203;HTU21D;51788;45.124;38.966;2023-02-01T04:56:51;3.54;89.22
65203;HTU21D;51788;45.124;38.966;2023-02-01T04:59:17;3.60;89.19
65203;HTU21D;51788;45.124;38.966;2023-02-01T05:01:42;3.63;89.26
65203;HTU21D;51788;45.124;38.966;2023-02-01T05:04:09;3.68;89.34
65203;HTU21D;51788;45.124;38.966;2023-02-01T05:06:35;3.69;89.40
65203;HTU21D;51788;45.124;38.966;2023-02-01T05:09:01;3.64;89.41
65203;HTU21D;51788;45.124;38.966;2023-02-01T05:11:27;3.55;89.42
65203;HTU21D;51788;45.124;38.966;2023-02-01T05:14:11;3.50;89.65
65203;HTU21D;51788;45.124;38.966;2023-02-01T05:16:37;3.55;89.57
65203;HTU21D;51788;45.124;38.966;2023-02-01T05:19:02;3.59;89.53
65203;HTU21D;51788;45.124;38.966;2023-02-01T05:21:28;3.64;89.50
65203;HTU21D;51788;45.124;38.966;2023-02-01T05:23:54;3.69;89.45
65203;HTU21D;51788;45.124;38.966;2023-02-01T05:26:42;3.60;89.37
65203;HTU21D;51788;45.124;38.966;2023-02-01T05:29:09;3.47;89.39
65203;HTU21D;51788;45.124;38.966;2023-02-01T05:31:36;3.28;89.69
65203;HTU21D;51788;45.124;38.966;2023-02-01T05:34:02;3.16;90.05
65203;HTU21D;51788;45.124;38.966;2023-02-01T05:36:28;3.17;90.22
65203;HTU21D;51788;45.124;38.966;2023-02-01T05:38:54;3.28;90.12
65203;HTU21D;51788;45.124;38.966;2023-02-01T05:41:20;3.21;89.97
65203;HTU21D;51788;45.124;38.966;2023-02-01T05:43:45;3.20;89.93
65203;HTU21D;51788;45.124;38.966;2023-02-01T05:46:12;3.21;89.93
65203;HTU21D;51788;45.124;38.966;2023-02-01T05:48:42;3.08;89.96
65203;HTU21D;51788;45.124;38.966;2023-02-01T05:51:09;3.14;90.21
65203;HTU21D;51788;45.124;38.966;2023-02-01T05:53:35;3.23;89.83
65203;HTU21D;51788;45.124;38.966;2023-02-01T05:56:01;3.17;89.81
65203;HTU21D;51788;45.124;38.966;2023-02-01T05:58:27;3.13;89.90
65203;HTU21D;51788;45.124;38.966;2023-02-01T06:00:53;3.18;90.08
65203;HTU21D;51788;45.124;38.966;2023-02-01T06:03:20;3.34;89.90
65203;HTU21D;51788;45.124;38.966;2023-02-01T06:05:46;3.38;89.63
65203;HTU21D;51788;45.124;38.966;2023-02-01T06:08:13;3.40;89.66
65203;HTU21D;51788;45.124;38.966;2023-02-01T06:10:39;3.45;89.58
65203;HTU21D;51788;45.124;38.966;2023-02-01T06:13:06;3.43;89.62
65203;HTU21D;51788;45.124;38.966;2023-02-01T06:15:32;3.53;89.57
65203;HTU21D;51788;45.124;38.966;2023-02-01T06:17:58;3.49;89.41
65203;HTU21D;51788;45.124;38.966;2023-02-01T06:20:24;3.39;89.41
65203;HTU21D;51788;45.124;38.966;2023-02-01T06:22:49;3.25;89.70
65203;HTU21D;51788;45.124;38.966;2023-02-01T06:25:16;3.12;90.05
65203;HTU21D;51788;45.124;38.966;2023-02-01T06:27:42;3.05;90.14
65203;HTU21D;51788;45.124;38.966;2023-02-01T06:30:11;2.97;90.29
65203;HTU21D;51788;45.124;38.966;2023-02-01T06:32:40;2.93;90.36
65203;HTU21D;51788;45.124;38.966;2023-02-01T06:35:10;2.89;90.31
65203;HTU21D;51788;45.124;38.966;2023-02-01T06:37:42;2.79;90.41
65203;HTU21D;51788;45.124;38.966;2023-02-01T06:40:08;2.73;90.44
65203;HTU21D;51788;45.124;38.966;2023-02-01T06:42:34;2.68;90.49
65203;HTU21D;51788;45.124;38.966;2023-02-01T06:45:00;2.69;90.45
65203;HTU21D;51788;45.124;38.966;2023-02-01T06:47:26;2.67;90.41
65203;HTU21D;51788;45.124;38.966;2023-02-01T06:49:52;2.66;90.39
65203;HTU21D;51788;45.124;38.966;2023-02-01T06:52:18;2.67;90.37
65203;HTU21D;51788;45.124;38.966;2023-02-01T06:54:44;2.76;90.35
65203;HTU21D;51788;45.124;38.966;2023-02-01T06:57:10;2.82;89.93
65203;HTU21D;51788;45.124;38.966;2023-02-01T06:59:36;2.78;90.02
65203;HTU21D;51788;45.124;38.966;2023-02-01T07:02:02;2.79;90.02
65203;HTU21D;51788;45.124;38.966;2023-02-01T07:04:28;2.73;90.08
65203;HTU21D;51788;45.124;38.966;2023-02-01T07:06:54;2.81;90.21
65203;HTU21D;51788;45.124;38.966;2023-02-01T07:09:20;2.93;90.10
65203;HTU21D;51788;45.124;38.966;2023-02-01T07:11:46;2.96;89.95
65203;HTU21D;51788;45.124;38.966;2023-02-01T07:14:12;2.97;89.69
65203;HTU21D;51788;45.124;38.966;2023-02-01T07:16:38;2.95;89.92
65203;HTU21D;51788;45.124;38.966;2023-02-01T07:19:04;2.99;89.80
65203;HTU21D;51788;45.124;38.966;2023-02-01T07:21:31;3.05;89.92
65203;HTU21D;51788;45.124;38.966;2023-02-01T07:23:58;3.16;89.66
65203;HTU21D;51788;45.124;38.966;2023-02-01T07:26:25;3.24;89.54
65203;HTU21D;51788;45.124;38.966;2023-02-01T07:28:50;3.29;89.51
65203;HTU21D;51788;45.124;38.966;2023-02-01T07:31:18;3.26;89.60
65203;HTU21D;51788;45.124;38.966;2023-02-01T07:33:48;3.36;89.69
65203;HTU21D;51788;45.124;38.966;2023-02-01T07:36:18;3.52;89.42
65203;HTU21D;51788;45.124;38.966;2023-02-01T07:38:44;3.61;89.26
65203;HTU21D;51788;45.124;38.966;2023-02-01T07:41:12;3.76;89.09
65203;HTU21D;51788;45.124;38.966;2023-02-01T07:43:38;3.88;88.90
65203;HTU21D;51788;45.124;38.966;2023-02-01T07:46:05;3.99;88.84
65203;HTU21D;51788;45.124;38.966;2023-02-01T07:48:32;4.05;88.76
65203;HTU21D;51788;45.124;38.966;2023-02-01T07:51:16;4.16;88.76
65203;HTU21D;51788;45.124;38.966;2023-02-01T07:53:43;4.20;88.85
65203;HTU21D;51788;45.124;38.966;2023-02-01T07:56:14;4.29;88.88
65203;HTU21D;51788;45.124;38.966;2023-02-01T07:58:41;4.33;88.92
65203;HTU21D;51788;45.124;38.966;2023-02-01T08:01:15;4.42;88.98
65203;HTU21D;51788;45.124;38.966;2023-02-01T08:03:55;4.43;88.78
65203;HTU21D;51788;45.124;38.966;2023-02-01T08:06:21;4.38;88.89
65203;HTU21D;51788;45.124;38.966;2023-02-01T08:08:49;4.37;88.98
65203;HTU21D;51788;45.124;38.966;2023-02-01T08:11:15;4.49;88.88
65203;HTU21D;51788;45.124;38.966;2023-02-01T08:13:42;4.46;88.58
65203;HTU21D;51788;45.124;38.966;2023-02-01T08:16:10;4.41;88.78
65203;HTU21D;51788;45.124;38.966;2023-02-01T08:18:37;4.53;88.86
65203;HTU21D;51788;45.124;38.966;2023-02-01T08:21:14;4.62;88.44
65203;HTU21D;51788;45.124;38.966;2023-02-01T08:23:41;4.56;88.37
65203;HTU21D;51788;45.124;38.966;2023-02-01T08:26:19;4.67;88.65
65203;HTU21D;51788;45.124;38.966;2023-02-01T08:28:53;4.86;88.43
65203;HTU21D;51788;45.124;38.966;2023-02-01T08:31:21;5.01;88.17
65203;HTU21D;51788;45.124;38.966;2023-02-01T08:33:50;5.09;87.94
65203;HTU21D;51788;45.124;38.966;2023-02-01T08:36:17;5.11;87.75
65203;HTU21D;51788;45.124;38.966;2023-02-01T08:38:44;5.17;87.83
65203;HTU21D;51788;45.124;38.966;2023-02-01T08:41:15;5.17;87.75
65203;HTU21D;51788;45.124;38.966;2023-02-01T08:43:42;5.24;87.77
65203;HTU21D;51788;45.124;38.966;2023-02-01T08:46:09;5.25;87.27
65203;HTU21D;51788;45.124;38.966;2023-02-01T08:48:36;5.26;87.37
65203;HTU21D;51788;45.124;38.966;2023-02-01T08:51:08;5.35;87.48
65203;HTU21D;51788;45.124;38.966;2023-02-01T08:53:35;5.48;87.18
65203;HTU21D;51788;45.124;38.966;2023-02-01T08:56:02;5.52;87.28
65203;HTU21D;51788;45.124;38.966;2023-02-01T08:58:28;5.71;87.17
65203;HTU21D;51788;45.124;38.966;2023-02-01T09:00:54;5.94;86.64
65203;HTU21D;51788;45.124;38.966;2023-02-01T09:03:20;5.92;86.31
65203;HTU21D;51788;45.124;38.966;2023-02-01T09:05:46;5.90;86.24
65203;HTU21D;51788;45.124;38.966;2023-02-01T09:08:13;5.85;86.33
65203;HTU21D;51788;45.124;38.966;2023-02-01T09:10:41;5.90;86.41
65203;HTU21D;51788;45.124;38.966;2023-02-01T09:13:08;5.94;86.16
65203;HTU21D;51788;45.124;38.966;2023-02-01T09:15:34;6.07;85.87
65203;HTU21D;51788;45.124;38.966;2023-02-01T09:18:00;6.17;85.45
65203;HTU21D;51788;45.124;38.966;2023-02-01T09:20:26;6.23;85.03
65203;HTU21D;51788;45.124;38.966;2023-02-01T09:22:54;6.28;84.63
65203;HTU21D;51788;45.124;38.966;2023-02-01T09:25:20;6.30;83.79
65203;HTU21D;51788;45.124;38.966;2023-02-01T09:27:46;6.23;83.50
65203;HTU21D;51788;45.124;38.966;2023-02-01T09:30:12;6.23;83.91
65203;HTU21D;51788;45.124;38.966;2023-02-01T09:32:38;6.45;83.91
65203;HTU21D;51788;45.124;38.966;2023-02-01T09:35:04;6.63;83.25
65203;HTU21D;51788;45.124;38.966;2023-02-01T09:37:30;6.73;82.91
65203;HTU21D;51788;45.124;38.966;2023-02-01T09:39:56;6.53;82.40
65203;HTU21D;51788;45.124;38.966;2023-02-01T09:47:51;6.27;82.54
65203;HTU21D;51788;45.124;38.966;2023-02-01T09:50:37;6.17;83.20
65203;HTU21D;51788;45.124;38.966;2023-02-01T09:53:05;6.25;83.08
65203;HTU21D;51788;45.124;38.966;2023-02-01T09:55:39;6.15;82.81
65203;HTU21D;51788;45.124;38.966;2023-02-01T10:01:00;6.07;82.44
65203;HTU21D;51788;45.124;38.966;2023-02-01T10:03:33;5.93;82.43
65203;HTU21D;51788;45.124;38.966;2023-02-01T10:20:01;6.00;83.01
65203;HTU21D;51788;45.124;38.966;2023-02-01T10:27:40;6.26;82.54
65203;HTU21D;51788;45.124;38.966;2023-02-01T10:30:22;6.34;82.58
65203;HTU21D;51788;45.124;38.966;2023-02-01T10:33:26;6.42;82.55
65203;HTU21D;51788;45.124;38.966;2023-02-01T10:36:08;6.29;82.21
65203;HTU21D;51788;45.124;38.966;2023-02-01T10:38:36;6.24;82.35
65203;HTU21D;51788;45.124;38.966;2023-02-01T10:41:22;6.24;82.60
65203;HTU21D;51788;45.124;38.966;2023-02-01T10:43:53;6.24;82.39
65203;HTU21D;51788;45.124;38.966;2023-02-01T10:46:22;6.23;82.55
65203;HTU21D;51788;45.124;38.966;2023-02-01T10:48:50;6.22;82.42
65203;HTU21D;51788;45.124;38.966;2023-02-01T10:51:22;6.26;82.61
65203;HTU21D;51788;45.124;38.966;2023-02-01T10:54:00;6.31;82.55
65203;HTU21D;51788;45.124;38.966;2023-02-01T10:56:28;6.26;81.43
65203;HTU21D;51788;45.124;38.966;2023-02-01T10:59:05;6.12;81.69
65203;HTU21D;51788;45.124;38.966;2023-02-01T11:01:37;6.04;82.03
65203;HTU21D;51788;45.124;38.966;2023-02-01T11:04:25;5.99;82.03
65203;HTU21D;51788;45.124;38.966;2023-02-01T11:07:05;6.06;82.45
65203;HTU21D;51788;45.124;38.966;2023-02-01T11:09:38;6.16;82.43
65203;HTU21D;51788;45.124;38.966;2023-02-01T11:12:10;6.17;82.04
65203;HTU21D;51788;45.124;38.966;2023-02-01T11:14:47;6.08;81.74
65203;HTU21D;51788;45.124;38.966;2023-02-01T11:17:17;6.07;82.00
65203;HTU21D;51788;45.124;38.966;2023-02-01T11:20:00;6.07;82.10
65203;HTU21D;51788;45.124;38.966;2023-02-01T11:22:27;6.19;82.13
65203;HTU21D;51788;45.124;38.966;2023-02-01T11:24:55;6.28;82.04
65203;HTU21D;51788;45.124;38.966;2023-02-01T11:27:22;6.37;81.91
65203;HTU21D;51788;45.124;38.966;2023-02-01T11:29:59;6.43;81.68
65203;HTU21D;51788;45.124;38.966;2023-02-01T11:32:26;6.43;81.04
65203;HTU21D;51788;45.124;38.966;2023-02-01T11:34:59;6.36;81.09
65203;HTU21D;51788;45.124;38.966;2023-02-01T11:37:36;6.36;81.41
65203;HTU21D;51788;45.124;38.966;2023-02-01T11:40:25;6.36;81.49
65203;HTU21D;51788;45.124;38.966;2023-02-01T11:43:00;6.43;81.52
65203;HTU21D;51788;45.124;38.966;2023-02-01T11:45:33;6.51;81.46
65203;HTU21D;51788;45.124;38.966;2023-02-01T11:48:01;6.55;81.39
65203;HTU21D;51788;45.124;38.966;2023-02-01T11:56:37;6.61;80.98
65203;HTU21D;51788;45.124;38.966;2023-02-01T11:59:46;6.57;81.32
65203;HTU21D;51788;45.124;38.966;2023-02-01T12:08:20;6.69;81.21
65203;HTU21D;51788;45.124;38.966;2023-02-01T12:10:57;6.75;81.22
65203;HTU21D;51788;45.124;38.966;2023-02-01T12:21:56;6.56;80.24
65203;HTU21D;51788;45.124;38.966;2023-02-01T12:24:33;6.45;80.74
65203;HTU21D;51788;45.124;38.966;2023-02-01T12:46:52;6.54;79.98
65203;HTU21D;51788;45.124;38.966;2023-02-01T12:49:30;6.40;80.15
65203;HTU21D;51788;45.124;38.966;2023-02-01T12:52:01;6.37;80.81
65203;HTU21D;51788;45.124;38.966;2023-02-01T12:54:57;6.44;81.04
65203;HTU21D;51788;45.124;38.966;2023-02-01T12:57:32;6.51;80.91
65203;HTU21D;51788;45.124;38.966;2023-02-01T13:02:51;6.55;80.88
65203;HTU21D;51788;45.124;38.966;2023-02-01T13:05:28;6.59;80.94
65203;HTU21D;51788;45.124;38.966;2023-02-01T13:07:58;6.64;80.84
65203;HTU21D;51788;45.124;38.966;2023-02-01T13:11:07;6.59;80.76
65203;HTU21D;51788;45.124;38.966;2023-02-01T13:16:16;6.51;80.87
65203;HTU21D;51788;45.124;38.966;2023-02-01T13:18:43;6.51;80.96
65203;HTU21D;51788;45.124;38.966;2023-02-01T13:21:36;6.51;81.03
65203;HTU21D;51788;45.124;38.966;2023-02-01T13:24:04;6.50;81.20
65203;HTU21D;51788;45.124;38.966;2023-02-01T13:26:30;6.43;81.14
65203;HTU21D;51788;45.124;38.966;2023-02-01T13:29:01;6.40;81.15
65203;HTU21D;51788;45.124;38.966;2023-02-01T13:34:33;6.27;81.33
65203;HTU21D;51788;45.124;38.966;2023-02-01T13:40:39;6.25;81.60
65203;HTU21D;51788;45.124;38.966;2023-02-01T13:43:24;6.27;81.62
65203;HTU21D;51788;45.124;38.966;2023-02-01T13:45:54;6.27;81.62
65203;HTU21D;51788;45.124;38.966;2023-02-01T13:48:26;6.26;81.72
65203;HTU21D;51788;45.124;38.966;2023-02-01T13:50:56;6.26;81.61
65203;HTU21D;51788;45.124;38.966;2023-02-01T13:53:32;6.22;81.79
65203;HTU21D;51788;45.124;38.966;2023-02-01T13:56:19;6.23;81.87
65203;HTU21D;51788;45.124;38.966;2023-02-01T13:58:47;6.20;81.90
65203;HTU21D;51788;45.124;38.966;2023-02-01T14:04:06;6.17;82.07
65203;HTU21D;51788;45.124;38.966;2023-02-01T14:06:53;6.14;82.10
65203;HTU21D;51788;45.124;38.966;2023-02-01T14:09:32;6.13;82.17
65203;HTU21D;51788;45.124;38.966;2023-02-01T14:15:26;6.06;82.22
65203;HTU21D;51788;45.124;38.966;2023-02-01T14:17:52;6.06;82.30
65203;HTU21D;51788;45.124;38.966;2023-02-01T14:20:45;6.07;82.38
65203;HTU21D;51788;45.124;38.966;2023-02-01T14:23:19;6.04;82.37
65203;HTU21D;51788;45.124;38.966;2023-02-01T14:25:59;6.01;82.39
65203;HTU21D;51788;45.124;38.966;2023-02-01T14:28:28;5.99;82.42
65203;HTU21D;51788;45.124;38.966;2023-02-01T14:30:56;5.97;82.49
65203;HTU21D;51788;45.124;38.966;2023-02-01T14:33:27;5.95;82.53
65203;HTU21D;51788;45.124;38.966;2023-02-01T14:36:14;5.91;82.58
65203;HTU21D;51788;45.124;38.966;2023-02-01T14:38:48;5.87;82.64
65203;HTU21D;51788;45.124;38.966;2023-02-01T14:41:26;5.85;82.68
65203;HTU21D;51788;45.124;38.966;2023-02-01T14:47:08;5.86;82.78
65203;HTU21D;51788;45.124;38.966;2023-02-01T14:52:46;5.78;82.90
65203;HTU21D;51788;45.124;38.966;2023-02-01T15:01:22;5.75;82.94
65203;HTU21D;51788;45.124;38.966;2023-02-01T15:06:39;5.68;83.33
65203;HTU21D;51788;45.124;38.966;2023-02-01T15:09:15;5.70;83.17
65203;HTU21D;51788;45.124;38.966;2023-02-01T15:11:56;5.65;83.29
65203;HTU21D;51788;45.124;38.966;2023-02-01T15:14:23;5.61;83.39
65203;HTU21D;51788;45.124;38.966;2023-02-01T15:16:49;5.62;83.38
65203;HTU21D;51788;45.124;38.966;2023-02-01T15:19:25;5.60;83.36
65203;HTU21D;51788;45.124;38.966;2023-02-01T15:21:54;5.61;83.35
65203;HTU21D;51788;45.124;38.966;2023-02-01T15:24:23;5.59;83.32
65203;HTU21D;51788;45.124;38.966;2023-02-01T15:26:51;5.60;83.36
65203;HTU21D;51788;45.124;38.966;2023-02-01T15:29:18;5.65;83.27
65203;HTU21D;51788;45.124;38.966;2023-02-01T15:31:50;5.74;83.11
65203;HTU21D;51788;45.124;38.966;2023-02-01T15:34:18;5.78;82.99
65203;HTU21D;51788;45.124;38.966;2023-02-01T15:36:45;5.77;82.97
65203;HTU21D;51788;45.124;38.966;2023-02-01T15:39:17;5.75;83.05
65203;HTU21D;51788;45.124;38.966;2023-02-01T15:41:49;5.76;83.13
65203;HTU21D;51788;45.124;38.966;2023-02-01T15:46:49;5.76;83.14
65203;HTU21D;51788;45.124;38.966;2023-02-01T15:49:26;5.78;83.09
65203;HTU21D;51788;45.124;38.966;2023-02-01T15:51:53;5.75;83.17
65203;HTU21D;51788;45.124;38.966;2023-02-01T15:54:37;5.74;83.31
65203;HTU21D;51788;45.124;38.966;2023-02-01T15:57:07;5.69;83.32
65203;HTU21D;51788;45.124;38.966;2023-02-01T15:59:44;5.67;83.45
65203;HTU21D;51788;45.124;38.966;2023-02-01T16:02:41;5.63;83.52
65203;HTU21D;51788;45.124;38.966;2023-02-01T16:05:34;5.54;83.59
65203;HTU21D;51788;45.124;38.966;2023-02-01T16:08:06;5.46;83.73
65203;HTU21D;51788;45.124;38.966;2023-02-01T16:10:41;5.38;83.88
65203;HTU21D;51788;45.124;38.966;2023-02-01T16:13:08;5.39;83.88
65203;HTU21D;51788;45.124;38.966;2023-02-01T16:15:34;5.37;83.81
65203;HTU21D;51788;45.124;38.966;2023-02-01T16:18:00;5.30;83.90
65203;HTU21D;51788;45.124;38.966;2023-02-01T16:20:26;5.26;84.02
65203;HTU21D;51788;45.124;38.966;2023-02-01T16:22:51;5.19;84.05
65203;HTU21D;51788;45.124;38.966;2023-02-01T16:25:17;5.09;84.26
65203;HTU21D;51788;45.124;38.966;2023-02-01T16:27:43;5.04;84.49
65203;HTU21D;51788;45.124;38.966;2023-02-01T16:30:09;4.97;84.62
65203;HTU21D;51788;45.124;38.966;2023-02-01T16:32:37;4.93;84.63
65203;HTU21D;51788;45.124;38.966;2023-02-01T16:35:21;4.88;84.64
65203;HTU21D;51788;45.124;38.966;2023-02-01T16:37:48;4.82;84.65
65203;HTU21D;51788;45.124;38.966;2023-02-01T16:40:16;4.81;84.70
65203;HTU21D;51788;45.124;38.966;2023-02-01T16:42:42;4.80;84.72
65203;HTU21D;51788;45.124;38.966;2023-02-01T16:45:09;4.79;84.71
65203;HTU21D;51788;45.124;38.966;2023-02-01T16:47:37;4.78;84.70
65203;HTU21D;51788;45.124;38.966;2023-02-01T16:50:04;4.77;84.68
65203;HTU21D;51788;45.124;38.966;2023-02-01T16:52:30;4.80;84.61
65203;HTU21D;51788;45.124;38.966;2023-02-01T16:54:56;4.82;84.59
65203;HTU21D;51788;45.124;38.966;2023-02-01T16:57:22;4.86;84.56
65203;HTU21D;51788;45.124;38.966;2023-02-01T16:59:49;4.90;84.45
65203;HTU21D;51788;45.124;38.966;2023-02-01T17:02:18;4.90;84.41
65203;HTU21D;51788;45.124;38.966;2023-02-01T17:04:47;4.93;84.41
65203;HTU21D;51788;45.124;38.966;2023-02-01T17:07:18;4.92;84.42
65203;HTU21D;51788;45.124;38.966;2023-02-01T17:09:47;4.92;84.48
65203;HTU21D;51788;45.124;38.966;2023-02-01T17:14:47;4.84;84.58
65203;HTU21D;51788;45.124;38.966;2023-02-01T17:17:13;4.81;84.73
65203;HTU21D;51788;45.124;38.966;2023-02-01T17:19:39;4.78;84.83
65203;HTU21D;51788;45.124;38.966;2023-02-01T17:22:05;4.75;84.93
65203;HTU21D;51788;45.124;38.966;2023-02-01T17:24:32;4.74;84.97
65203;HTU21D;51788;45.124;38.966;2023-02-01T17:26:58;4.74;85.03
65203;HTU21D;51788;45.124;38.966;2023-02-01T17:29:24;4.75;84.97
65203;HTU21D;51788;45.124;38.966;2023-02-01T17:31:53;4.71;85.04
65203;HTU21D;51788;45.124;38.966;2023-02-01T17:34:19;4.74;85.03
65203;HTU21D;51788;45.124;38.966;2023-02-01T17:36:47;4.72;85.00
65203;HTU21D;51788;45.124;38.966;2023-02-01T17:39:14;4.74;85.02
65203;HTU21D;51788;45.124;38.966;2023-02-01T17:42:02;4.76;84.89
65203;HTU21D;51788;45.124;38.966;2023-02-01T17:44:28;4.75;85.00
65203;HTU21D;51788;45.124;38.966;2023-02-01T17:46:54;4.73;84.99
65203;HTU21D;51788;45.124;38.966;2023-02-01T17:49:22;4.72;85.13